Grandin Road, Virginia
Current Conditions -  °F | °C
As of 9:54 PM on Sunday 21 Dec 2014 (Local Time) from KROA Reporting Station
Overcast Overcast  
Wind Chill: 35°   Ceiling: 3700
Heat Index: 40°   Visibility: 10mi
Dew Point: 30°   Wind: 7mph
Humidity: 68%   Direction: 130°SE
Pressure: 30.26"   Gusts: NA
Location:  37.2556°N, 79.9796°W
Report Text: KROA 220254Z 13006KT 10SM OVC037 04/M01 A3026 RMK AO2 SLP251 T00441011 53003
Loading
Personal Weather Stations






























Interactive Weather Map New forecast layout! Learn more

10-Day Weather Forecast

Advertisements
Track Severe Weather on mobile